Time;durP1;ratioP1;P1;durP2;ratioP2;P2;SDS_P1;SDS_P2;PMS_P1;PMS_P2;Temp;Humidity;BMP_temperature;BMP_pressure;BME280_temperature;BME280_humidity;BME280_pressure;Samples;Min_cycle;Max_cycle;Signal;HPM_P1;HPM_P2
2021/06/05 00:02:09;;;;;;;41.80;33.40;;;;;;;;;;3606976;39;20712;-82
2021/06/05 00:04:36;;;;;;;37.43;33.27;;;;;;;;;;3597589;39;20437;-80
2021/06/05 00:07:02;;;;;;;39.27;33.20;;;;;;;;;;3596190;39;21144;-80
2021/06/05 00:09:28;;;;;;;43.93;33.10;;;;;;;;;;3590819;39;20407;-81
2021/06/05 00:11:54;;;;;;;40.67;32.17;;;;;;;;;;3583272;39;20411;-81
2021/06/05 00:14:20;;;;;;;40.20;33.73;;;;;;;;;;3597623;39;20410;-81
2021/06/05 00:16:48;;;;;;;42.73;32.70;;;;;;;;;;3598706;39;20395;-82
2021/06/05 00:19:15;;;;;;;41.33;32.00;;;;;;;;;;3596667;39;20420;-81
2021/06/05 00:21:41;;;;;;;47.53;35.50;;;;;;;;;;3588820;39;21229;-81
2021/06/05 00:24:08;;;;;;;45.23;32.33;;;;;;;;;;3589258;39;20425;-81
2021/06/05 00:26:35;;;;;;;48.43;35.37;;;;;;;;;;3600624;39;20388;-81
2021/06/05 00:29:01;;;;;;;48.70;33.97;;;;;;;;;;3600299;39;20734;-81
2021/06/05 00:31:27;;;;;;;47.63;33.33;;;;;;;;;;3596543;39;20418;-82
2021/06/05 00:33:53;;;;;;;46.10;33.43;;;;;;;;;;3595267;39;20462;-81
2021/06/05 00:36:20;;;;;;;52.77;35.50;;;;;;;;;;3606357;39;20436;-82
2021/06/05 00:38:47;;;;;;;45.60;35.97;;;;;;;;;;3593027;39;20415;-81
2021/06/05 00:41:16;;;;;;;42.93;33.37;;;;;;;;;;3590160;39;20442;-81
2021/06/05 00:43:44;;;;;;;50.07;34.77;;;;;;;;;;3597724;39;20430;-81
2021/06/05 00:46:10;;;;;;;42.73;35.60;;;;;;;;;;3597546;39;20440;-81
2021/06/05 00:48:37;;;;;;;46.60;35.27;;;;;;;;;;3589973;39;20661;-81
2021/06/05 00:51:03;;;;;;;41.00;33.60;;;;;;;;;;3589788;39;20513;-82
2021/06/05 00:53:30;;;;;;;44.87;32.90;;;;;;;;;;3598347;39;20411;-81
2021/06/05 00:55:57;;;;;;;47.50;34.17;;;;;;;;;;3590208;39;20434;-81
2021/06/05 00:58:25;;;;;;;42.53;35.27;;;;;;;;;;3598753;39;20463;-81
2021/06/05 01:00:52;;;;;;;42.03;33.97;;;;;;;;;;3597432;39;20433;-81
2021/06/05 01:03:19;;;;;;;45.10;33.87;;;;;;;;;;3596790;39;20413;-81
2021/06/05 01:05:46;;;;;;;45.43;34.90;;;;;;;;;;3657755;22;20486;-81
2021/06/05 01:08:20;;;;;;;42.23;33.87;;;;;;;;;;3602984;39;20786;-80
2021/06/05 01:10:49;;;;;;;52.67;38.60;;;;;;;;;;3603175;39;20422;-80
2021/06/05 01:13:25;;;;;;;54.67;36.00;;;;;;;;;;3592226;39;20502;-80
2021/06/05 01:15:51;;;;;;;50.90;37.80;;;;;;;;;;3592613;39;20426;-80
2021/06/05 01:18:26;;;;;;;59.17;39.03;;;;;;;;;;3605218;39;20411;-79
2021/06/05 01:20:58;;;;;;;53.47;37.87;;;;;;;;;;3601786;39;20417;-79
2021/06/05 01:23:34;;;;;;;56.13;38.43;;;;;;;;;;3593707;39;20415;-79
2021/06/05 01:26:00;;;;;;;52.37;38.33;;;;;;;;;;3593385;39;21206;-79
2021/06/05 01:28:46;;;;;;;56.10;37.37;;;;;;;;;;3594421;39;21132;-79
2021/06/05 01:31:16;;;;;;;48.43;35.17;;;;;;;;;;3602002;39;20407;-80
2021/06/05 01:33:44;;;;;;;48.77;35.50;;;;;;;;;;3592472;39;20426;-80
2021/06/05 01:36:11;;;;;;;54.73;39.70;;;;;;;;;;3602779;39;20444;-80
2021/06/05 01:38:39;;;;;;;58.33;39.90;;;;;;;;;;3593027;39;20580;-80
2021/06/05 01:41:05;;;;;;;64.47;41.33;;;;;;;;;;3594050;39;20512;-79
2021/06/05 01:43:31;;;;;;;55.70;40.57;;;;;;;;;;3602654;39;20530;-80
2021/06/05 01:45:59;;;;;;;68.00;45.27;;;;;;;;;;3594559;39;20437;-79
2021/06/05 01:48:25;;;;;;;78.93;46.60;;;;;;;;;;3594680;39;20395;-79
2021/06/05 01:50:54;;;;;;;64.93;40.83;;;;;;;;;;3595824;39;20458;-79
2021/06/05 01:53:31;;;;;;;53.37;38.10;;;;;;;;;;3596516;39;20415;-79
2021/06/05 01:56:07;;;;;;;54.90;37.90;;;;;;;;;;3604539;39;20386;-79
2021/06/05 01:58:34;;;;;;;60.50;37.80;;;;;;;;;;3603769;39;20411;-80
2021/06/05 02:01:02;;;;;;;64.63;41.63;;;;;;;;;;3585649;39;20517;-79
2021/06/05 02:03:28;;;;;;;63.83;40.93;;;;;;;;;;3594167;39;20747;-79
2021/06/05 02:05:54;;;;;;;59.17;39.10;;;;;;;;;;3602789;39;20567;-81
2021/06/05 02:08:25;;;;;;;63.50;37.97;;;;;;;;;;3595073;39;20429;-80
2021/06/05 02:10:53;;;;;;;63.43;40.00;;;;;;;;;;3603748;39;20411;-80
2021/06/05 02:13:21;;;;;;;72.80;40.30;;;;;;;;;;3593334;39;20403;-80
2021/06/05 02:15:52;;;;;;;67.60;41.20;;;;;;;;;;3594386;39;20414;-80
2021/06/05 02:18:22;;;;;;;71.13;42.37;;;;;;;;;;3594201;39;20436;-79
2021/06/05 02:20:52;;;;;;;74.97;43.67;;;;;;;;;;3594631;39;20450;-80
2021/06/05 02:23:22;;;;;;;80.00;42.50;;;;;;;;;;3592725;39;20461;-80
2021/06/05 02:25:49;;;;;;;72.80;40.17;;;;;;;;;;3594321;39;20787;-79
2021/06/05 02:28:15;;;;;;;72.63;40.67;;;;;;;;;;3586579;39;20455;-80
2021/06/05 02:30:42;;;;;;;71.60;43.17;;;;;;;;;;3594241;39;20408;-80
2021/06/05 02:33:08;;;;;;;72.27;41.20;;;;;;;;;;3589640;39;21545;-80
2021/06/05 02:35:39;;;;;;;75.13;42.27;;;;;;;;;;3593774;39;21174;-80
2021/06/05 02:38:06;;;;;;;63.50;37.50;;;;;;;;;;3586134;39;20434;-80
2021/06/05 02:40:34;;;;;;;64.43;39.97;;;;;;;;;;3586107;39;20399;-80
2021/06/05 02:43:02;;;;;;;60.50;37.00;;;;;;;;;;3585796;39;20509;-81
2021/06/05 02:45:41;;;;;;;53.37;35.70;;;;;;;;;;3586735;39;20435;-81
2021/06/05 02:48:07;;;;;;;59.07;35.33;;;;;;;;;;3586592;39;20865;-80
2021/06/05 02:50:36;;;;;;;52.40;34.10;;;;;;;;;;3594702;39;21054;-81
2021/06/05 02:53:03;;;;;;;58.77;36.67;;;;;;;;;;3602287;39;20423;-81
2021/06/05 02:55:53;;;;;;;67.10;36.80;;;;;;;;;;3596141;39;20403;-83
2021/06/05 02:58:19;;;;;;;52.80;34.77;;;;;;;;;;3558962;40;20427;-80
2021/06/05 03:00:46;;;;;;;54.83;34.87;;;;;;;;;;3539386;40;20441;-80
2021/06/05 03:03:13;;;;;;;49.13;33.93;;;;;;;;;;3552013;40;20424;-81
2021/06/05 03:05:40;;;;;;;63.10;37.07;;;;;;;;;;3546239;40;20518;-79
2021/06/05 03:08:08;;;;;;;63.30;37.03;;;;;;;;;;3550341;40;20400;-79
2021/06/05 03:11:00;;;;;;;60.80;36.80;;;;;;;;;;3556027;40;20443;-80
2021/06/05 03:13:27;;;;;;;64.90;39.13;;;;;;;;;;3526057;40;20396;-79
2021/06/05 03:15:53;;;;;;;59.30;35.83;;;;;;;;;;3526764;40;20901;-79
2021/06/05 03:18:21;;;;;;;61.27;37.27;;;;;;;;;;3517264;40;20422;-79
2021/06/05 03:20:48;;;;;;;61.93;37.07;;;;;;;;;;3526898;40;20421;-80
2021/06/05 03:23:15;;;;;;;50.00;35.67;;;;;;;;;;3526889;40;20430;-80
2021/06/05 03:25:42;;;;;;;51.93;34.50;;;;;;;;;;3526997;40;20502;-81
2021/06/05 03:28:08;;;;;;;56.07;36.33;;;;;;;;;;3518192;40;20404;-80
2021/06/05 03:30:36;;;;;;;53.30;36.40;;;;;;;;;;3519343;40;20494;-80
2021/06/05 03:33:03;;;;;;;50.77;34.03;;;;;;;;;;3521418;40;20437;-81
2021/06/05 03:35:30;;;;;;;48.27;34.83;;;;;;;;;;3539943;40;20409;-81
2021/06/05 03:37:56;;;;;;;48.00;33.47;;;;;;;;;;3566963;40;20457;-79
2021/06/05 03:40:24;;;;;;;50.03;31.40;;;;;;;;;;3563197;40;20444;-79
2021/06/05 03:42:51;;;;;;;49.07;33.90;;;;;;;;;;3572041;40;20418;-80
2021/06/05 03:45:18;;;;;;;56.40;34.33;;;;;;;;;;3571243;40;20409;-80
2021/06/05 03:47:46;;;;;;;47.27;32.73;;;;;;;;;;3565820;40;20438;-80
2021/06/05 03:50:13;;;;;;;52.63;34.30;;;;;;;;;;3581780;39;20408;-79
2021/06/05 03:52:40;;;;;;;52.50;34.67;;;;;;;;;;3594052;39;20629;-79
2021/06/05 03:55:07;;;;;;;52.90;33.80;;;;;;;;;;3587456;39;20406;-80
2021/06/05 03:57:34;;;;;;;49.70;34.30;;;;;;;;;;3585108;39;20414;-81
2021/06/05 04:00:00;;;;;;;56.17;34.77;;;;;;;;;;3595058;39;20406;-80
2021/06/05 04:02:29;;;;;;;48.97;31.37;;;;;;;;;;3593897;39;20414;-80
2021/06/05 04:04:56;;;;;;;49.97;33.67;;;;;;;;;;3585820;39;20428;-81
2021/06/05 04:07:22;;;;;;;58.57;33.30;;;;;;;;;;3576618;39;20493;-81
2021/06/05 04:09:48;;;;;;;52.07;33.80;;;;;;;;;;3585805;39;20529;-80
2021/06/05 04:12:14;;;;;;;53.47;36.40;;;;;;;;;;3593966;39;20907;-80
2021/06/05 04:14:41;;;;;;;61.30;35.50;;;;;;;;;;3593574;39;20445;-80
2021/06/05 04:17:08;;;;;;;61.77;35.93;;;;;;;;;;3585323;39;20417;-79
2021/06/05 04:19:35;;;;;;;52.97;36.37;;;;;;;;;;3585472;39;20501;-80
2021/06/05 04:22:03;;;;;;;54.00;34.63;;;;;;;;;;3589096;39;20423;-80
2021/06/05 04:24:30;;;;;;;61.00;35.93;;;;;;;;;;3588268;39;20395;-80
2021/06/05 04:26:57;;;;;;;51.33;34.17;;;;;;;;;;3592542;39;20484;-80
2021/06/05 04:29:23;;;;;;;54.67;34.13;;;;;;;;;;3584856;39;20407;-80
2021/06/05 04:32:15;;;;;;;51.33;33.10;;;;;;;;;;3601812;39;20418;-80
2021/06/05 04:34:42;;;;;;;55.40;34.07;;;;;;;;;;3543679;40;20410;-80
2021/06/05 04:37:09;;;;;;;54.17;35.17;;;;;;;;;;3548671;40;20422;-80
2021/06/05 04:39:35;;;;;;;63.03;35.17;;;;;;;;;;3544342;40;20452;-80
2021/06/05 04:42:02;;;;;;;59.13;36.47;;;;;;;;;;3543029;40;20447;-80
2021/06/05 04:44:29;;;;;;;54.13;33.00;;;;;;;;;;3526884;40;20422;-80
2021/06/05 04:46:55;;;;;;;60.27;35.47;;;;;;;;;;3542327;40;20419;-77
2021/06/05 04:49:21;;;;;;;54.57;36.37;;;;;;;;;;3546049;40;21054;-80
2021/06/05 04:51:48;;;;;;;57.10;35.03;;;;;;;;;;3534932;40;20448;-79
2021/06/05 04:54:14;;;;;;;49.10;33.40;;;;;;;;;;3543682;40;20973;-80
2021/06/05 04:56:44;;;;;;;54.13;35.30;;;;;;;;;;3539952;40;20412;-80
2021/06/05 04:59:11;;;;;;;64.07;39.77;;;;;;;;;;3549612;40;20536;-78
2021/06/05 05:01:38;;;;;;;57.53;35.83;;;;;;;;;;3549892;40;20837;-79
2021/06/05 05:04:06;;;;;;;55.40;37.10;;;;;;;;;;3549695;40;20443;-79
2021/06/05 05:06:32;;;;;;;54.47;34.83;;;;;;;;;;3547613;40;20571;-80
2021/06/05 05:08:59;;;;;;;57.27;35.77;;;;;;;;;;3543917;40;20878;-80
2021/06/05 05:11:26;;;;;;;54.47;33.97;;;;;;;;;;3570888;39;20919;-80
2021/06/05 05:13:52;;;;;;;50.73;36.33;;;;;;;;;;3588641;39;20431;-80
2021/06/05 05:16:19;;;;;;;58.23;37.50;;;;;;;;;;3583597;39;20435;-79
2021/06/05 05:18:47;;;;;;;51.57;36.23;;;;;;;;;;3587232;39;20431;-80
2021/06/05 05:21:14;;;;;;;62.00;39.80;;;;;;;;;;3601696;39;20414;-80
2021/06/05 05:23:41;;;;;;;58.70;38.37;;;;;;;;;;3595616;39;20410;-80
2021/06/05 05:26:07;;;;;;;65.27;40.17;;;;;;;;;;3587419;39;20414;-80
2021/06/05 05:28:35;;;;;;;63.40;38.77;;;;;;;;;;3593290;39;20547;-81
2021/06/05 05:31:03;;;;;;;63.97;38.70;;;;;;;;;;3583309;39;20414;-80
2021/06/05 05:33:29;;;;;;;69.30;40.03;;;;;;;;;;3591618;39;20399;-80
2021/06/05 05:35:57;;;;;;;60.23;39.47;;;;;;;;;;3595245;39;20446;-80
2021/06/05 05:38:24;;;;;;;66.47;39.43;;;;;;;;;;3587193;39;20406;-79
2021/06/05 05:40:52;;;;;;;58.30;38.70;;;;;;;;;;3594422;39;20425;-79
2021/06/05 05:43:18;;;;;;;66.30;40.93;;;;;;;;;;3593854;39;20428;-79
2021/06/05 05:45:44;;;;;;;62.97;40.13;;;;;;;;;;3593709;39;20416;-80
2021/06/05 05:48:12;;;;;;;64.83;40.70;;;;;;;;;;3600468;39;20409;-79
2021/06/05 05:50:41;;;;;;;90.47;47.20;;;;;;;;;;3593229;39;20415;-80
2021/06/05 05:53:08;;;;;;;72.33;44.10;;;;;;;;;;3593048;39;20386;-79
2021/06/05 05:55:35;;;;;;;77.80;47.70;;;;;;;;;;3583098;39;20415;-82
2021/06/05 05:58:05;;;;;;;72.03;46.10;;;;;;;;;;3591651;39;20430;-80
2021/06/05 06:00:35;;;;;;;69.30;44.80;;;;;;;;;;3582157;39;20418;-79
2021/06/05 06:03:01;;;;;;;65.50;41.73;;;;;;;;;;3594277;39;20549;-79
2021/06/05 06:05:28;;;;;;;74.27;43.40;;;;;;;;;;3587169;39;20416;-80
2021/06/05 06:07:54;;;;;;;62.87;42.43;;;;;;;;;;3571224;40;20425;-80
2021/06/05 06:10:21;;;;;;;68.77;40.93;;;;;;;;;;3570646;40;20440;-80
2021/06/05 06:12:47;;;;;;;72.60;43.87;;;;;;;;;;3590067;39;21883;-80
2021/06/05 06:15:16;;;;;;;56.57;39.03;;;;;;;;;;3581915;39;20461;-80
2021/06/05 06:17:44;;;;;;;63.77;42.57;;;;;;;;;;3573806;39;20474;-79
2021/06/05 06:20:15;;;;;;;81.80;45.00;;;;;;;;;;3583097;39;20478;-80
2021/06/05 06:22:42;;;;;;;64.00;42.23;;;;;;;;;;3590021;39;20423;-80
2021/06/05 06:25:41;;;;;;;63.87;42.70;;;;;;;;;;3576294;39;21145;-80
2021/06/05 06:28:11;;;;;;;68.27;43.40;;;;;;;;;;3553717;40;20400;-80
2021/06/05 06:30:41;;;;;;;80.90;48.70;;;;;;;;;;3557554;40;20461;-81
2021/06/05 06:33:09;;;;;;;67.87;44.23;;;;;;;;;;3557981;40;20404;-80
2021/06/05 06:35:36;;;;;;;72.53;45.70;;;;;;;;;;3548438;40;20430;-81
2021/06/05 06:38:04;;;;;;;84.20;46.20;;;;;;;;;;3555256;40;20485;-81
2021/06/05 06:40:32;;;;;;;76.40;48.50;;;;;;;;;;3557041;40;20423;-81
2021/06/05 06:42:59;;;;;;;73.90;46.40;;;;;;;;;;3548082;40;20440;-81
2021/06/05 06:45:26;;;;;;;81.33;46.37;;;;;;;;;;3567474;40;20423;-81
2021/06/05 06:47:53;;;;;;;78.70;45.80;;;;;;;;;;3547846;40;20445;-80
2021/06/05 06:50:45;;;;;;;68.27;44.70;;;;;;;;;;3558187;40;20482;-80
2021/06/05 06:53:11;;;;;;;73.33;44.97;;;;;;;;;;3533293;40;20416;-81
2021/06/05 06:55:38;;;;;;;79.30;48.20;;;;;;;;;;3535212;40;20844;-79
2021/06/05 06:58:05;;;;;;;82.87;45.13;;;;;;;;;;3545515;40;20420;-80
2021/06/05 07:00:36;;;;;;;76.93;46.30;;;;;;;;;;3546415;40;20437;-81
2021/06/05 07:03:02;;;;;;;76.73;47.57;;;;;;;;;;3542349;40;20398;-80
2021/06/05 07:05:28;;;;;;;84.67;45.47;;;;;;;;;;3553772;40;20766;-81
2021/06/05 07:08:13;;;;;;;85.73;45.23;;;;;;;;;;3572695;40;21122;-80
2021/06/05 07:10:39;;;;;;;85.47;47.77;;;;;;;;;;3563454;40;20444;-79
2021/06/05 07:13:29;;;;;;;72.87;46.07;;;;;;;;;;3570546;40;20639;-80
2021/06/05 07:15:56;;;;;;;74.67;45.40;;;;;;;;;;3548764;40;20409;-80
2021/06/05 07:18:23;;;;;;;67.97;41.90;;;;;;;;;;3541868;40;20393;-81
2021/06/05 07:20:51;;;;;;;72.50;45.53;;;;;;;;;;3540959;40;20474;-80
2021/06/05 07:23:18;;;;;;;75.37;46.60;;;;;;;;;;3540274;40;20400;-81
2021/06/05 07:25:45;;;;;;;63.07;42.67;;;;;;;;;;3550721;40;20397;-80
2021/06/05 07:28:22;;;;;;;62.80;41.23;;;;;;;;;;3551832;40;20539;-81
2021/06/05 07:30:50;;;;;;;64.30;38.83;;;;;;;;;;3563471;40;20862;-80
2021/06/05 07:33:17;;;;;;;72.00;40.47;;;;;;;;;;3555028;40;20459;-80
2021/06/05 07:35:43;;;;;;;64.33;42.67;;;;;;;;;;3555790;40;20497;-81
2021/06/05 07:38:11;;;;;;;65.33;42.77;;;;;;;;;;3548962;40;20418;-80
2021/06/05 07:40:37;;;;;;;55.23;38.93;;;;;;;;;;3557844;40;20434;-80
2021/06/05 07:43:04;;;;;;;62.30;41.57;;;;;;;;;;3566572;40;20665;-80
2021/06/05 07:45:56;;;;;;;55.83;40.00;;;;;;;;;;3558302;40;20430;-80
2021/06/05 07:48:23;;;;;;;60.83;39.20;;;;;;;;;;3539557;40;20415;-81
2021/06/05 07:50:49;;;;;;;57.80;39.37;;;;;;;;;;3547653;40;20431;-81
2021/06/05 07:53:16;;;;;;;55.27;38.10;;;;;;;;;;3567353;40;20421;-80
2021/06/05 07:55:42;;;;;;;49.43;35.10;;;;;;;;;;3567466;40;20532;-81
2021/06/05 07:58:12;;;;;;;54.57;36.50;;;;;;;;;;3568153;40;20410;-80
2021/06/05 08:00:38;;;;;;;60.73;38.87;;;;;;;;;;3575270;40;20405;-80
2021/06/05 08:03:07;;;;;;;61.30;38.50;;;;;;;;;;3574924;40;21166;-81
2021/06/05 08:05:33;;;;;;;57.60;35.30;;;;;;;;;;3575438;40;20479;-80
2021/06/05 08:07:59;;;;;;;51.27;33.63;;;;;;;;;;3568236;40;20445;-80
2021/06/05 08:10:26;;;;;;;56.33;36.97;;;;;;;;;;3566723;40;20444;-80
2021/06/05 08:12:53;;;;;;;46.53;34.30;;;;;;;;;;3567384;40;20512;-80
2021/06/05 08:15:23;;;;;;;53.83;33.70;;;;;;;;;;3566674;40;20421;-80
2021/06/05 08:17:50;;;;;;;49.30;33.57;;;;;;;;;;3567156;40;20406;-80
2021/06/05 08:20:18;;;;;;;50.40;32.83;;;;;;;;;;3558990;40;20432;-81
2021/06/05 08:22:44;;;;;;;51.77;32.20;;;;;;;;;;3565555;40;20492;-80
2021/06/05 08:25:12;;;;;;;46.17;33.23;;;;;;;;;;3578227;39;20462;-80
2021/06/05 08:27:39;;;;;;;51.10;34.17;;;;;;;;;;3584412;39;20482;-80
2021/06/05 08:30:09;;;;;;;51.10;36.60;;;;;;;;;;3594107;39;20415;-80
2021/06/05 08:32:36;;;;;;;50.27;35.87;;;;;;;;;;3593165;39;20394;-80
2021/06/05 08:35:02;;;;;;;51.50;35.43;;;;;;;;;;3583555;39;20408;-80
2021/06/05 08:37:28;;;;;;;60.53;39.23;;;;;;;;;;3584332;39;20419;-79
2021/06/05 08:39:54;;;;;;;56.77;37.13;;;;;;;;;;3596922;39;20765;-79
2021/06/05 08:42:24;;;;;;;57.73;37.47;;;;;;;;;;3586129;39;20776;-78
2021/06/05 08:44:51;;;;;;;57.00;38.10;;;;;;;;;;3590582;39;20425;-79
2021/06/05 08:47:32;;;;;;;59.80;39.60;;;;;;;;;;3593540;39;20412;-79
2021/06/05 08:50:00;;;;;;;52.70;38.27;;;;;;;;;;3599857;39;20419;-80
2021/06/05 08:52:34;;;;;;;49.80;35.20;;;;;;;;;;3584436;39;20435;-79
2021/06/05 08:55:00;;;;;;;46.60;32.43;;;;;;;;;;3589011;39;20428;-79
2021/06/05 08:57:38;;;;;;;45.77;31.83;;;;;;;;;;3588552;39;20414;-80
2021/06/05 09:00:10;;;;;;;47.73;32.87;;;;;;;;;;3590569;39;21308;-80
2021/06/05 09:02:37;;;;;;;50.10;31.77;;;;;;;;;;3583408;39;20422;-80
2021/06/05 09:05:09;;;;;;;49.83;32.10;;;;;;;;;;3599884;39;20464;-79
2021/06/05 09:07:36;;;;;;;46.50;31.33;;;;;;;;;;3575252;39;20417;-79
2021/06/05 09:10:05;;;;;;;45.10;33.07;;;;;;;;;;3574938;39;20416;-80
2021/06/05 09:12:33;;;;;;;61.43;37.10;;;;;;;;;;3585372;39;20478;-79
2021/06/05 09:14:59;;;;;;;50.43;35.40;;;;;;;;;;3585532;39;20868;-81
2021/06/05 09:17:38;;;;;;;51.33;35.80;;;;;;;;;;3568751;39;20404;-80
2021/06/05 09:20:13;;;;;;;58.13;37.57;;;;;;;;;;3585968;39;20428;-81
2021/06/05 09:22:41;;;;;;;56.63;40.57;;;;;;;;;;3587331;39;20752;-80
2021/06/05 09:25:28;;;;;;;66.60;42.80;;;;;;;;;;3584003;39;20415;-81
2021/06/05 09:28:10;;;;;;;61.57;39.20;;;;;;;;;;3583489;39;20423;-79
2021/06/05 09:30:37;;;;;;;58.70;39.07;;;;;;;;;;3593286;39;20471;-80
2021/06/05 09:33:09;;;;;;;62.17;37.83;;;;;;;;;;3575612;39;20388;-80
2021/06/05 09:35:44;;;;;;;53.90;39.20;;;;;;;;;;3577880;39;20440;-81
2021/06/05 09:38:46;;;;;;;62.60;42.60;;;;;;;;;;3575444;39;20395;-80
2021/06/05 09:41:30;;;;;;;68.63;44.67;;;;;;;;;;3540655;40;20704;-81
2021/06/05 09:44:13;;;;;;;71.40;42.93;;;;;;;;;;3539623;40;20492;-80
2021/06/05 09:46:44;;;;;;;59.87;41.83;;;;;;;;;;3549963;40;20407;-81
2021/06/05 09:49:14;;;;;;;63.83;42.30;;;;;;;;;;3531765;40;20460;-81
2021/06/05 09:51:44;;;;;;;63.00;43.93;;;;;;;;;;3538527;40;20420;-81
2021/06/05 09:54:12;;;;;;;58.70;41.70;;;;;;;;;;3532232;40;20455;-80
2021/06/05 09:56:40;;;;;;;56.27;42.30;;;;;;;;;;3549948;40;20412;-80
2021/06/05 09:59:08;;;;;;;51.43;38.07;;;;;;;;;;3541611;40;20428;-80
2021/06/05 10:01:37;;;;;;;56.03;41.67;;;;;;;;;;3547441;40;20518;-80
2021/06/05 10:04:09;;;;;;;63.60;44.07;;;;;;;;;;3546335;40;20602;-80
2021/06/05 10:06:42;;;;;;;49.80;38.90;;;;;;;;;;3536208;40;20442;-81
2021/06/05 10:09:19;;;;;;;122.30;44.90;;;;;;;;;;3559559;40;20936;-81
2021/06/05 10:11:47;;;;;;;50.50;36.00;;;;;;;;;;3555956;40;20433;-80
2021/06/05 10:14:36;;;;;;;50.47;36.50;;;;;;;;;;3555539;39;20543;-79
2021/06/05 10:17:10;;;;;;;45.80;34.37;;;;;;;;;;3554588;40;20411;-78
2021/06/05 10:19:43;;;;;;;50.20;36.00;;;;;;;;;;3545638;40;20422;-79
2021/06/05 10:22:10;;;;;;;44.43;36.17;;;;;;;;;;3550508;40;20447;-80
2021/06/05 10:24:39;;;;;;;47.13;38.07;;;;;;;;;;3553991;40;20890;-79
2021/06/05 10:27:07;;;;;;;52.47;40.00;;;;;;;;;;3545832;40;20429;-79
2021/06/05 10:29:45;;;;;;;51.77;38.50;;;;;;;;;;3542667;40;20870;-80
2021/06/05 10:32:13;;;;;;;53.37;39.23;;;;;;;;;;3551836;40;20436;-79
2021/06/05 10:34:44;;;;;;;55.80;39.40;;;;;;;;;;3555142;40;20465;-79
2021/06/05 10:37:31;;;;;;;46.90;38.13;;;;;;;;;;3554508;40;20854;-79
2021/06/05 10:39:58;;;;;;;47.27;34.53;;;;;;;;;;3545262;40;20419;-80
2021/06/05 10:42:27;;;;;;;47.60;37.83;;;;;;;;;;3534706;40;20431;-79
2021/06/05 10:44:54;;;;;;;52.53;37.90;;;;;;;;;;3552475;40;21268;-79
2021/06/05 10:47:25;;;;;;;49.13;34.87;;;;;;;;;;3542312;40;20416;-79
2021/06/05 10:49:54;;;;;;;46.27;36.63;;;;;;;;;;3541564;40;20466;-79
2021/06/05 10:52:25;;;;;;;51.80;37.17;;;;;;;;;;3545226;40;20438;-79
2021/06/05 10:54:52;;;;;;;44.57;36.80;;;;;;;;;;3585130;39;20414;-79
2021/06/05 10:57:19;;;;;;;45.70;35.67;;;;;;;;;;3592605;39;20395;-79
2021/06/05 10:59:48;;;;;;;54.60;35.33;;;;;;;;;;3593322;39;20442;-80
2021/06/05 11:02:33;;;;;;;45.33;36.40;;;;;;;;;;3584164;39;20407;-80
2021/06/05 11:04:59;;;;;;;45.27;35.03;;;;;;;;;;3603369;39;22397;-78
2021/06/05 11:07:25;;;;;;;55.37;35.10;;;;;;;;;;3601605;39;20426;-78
2021/06/05 11:09:53;;;;;;;48.60;35.77;;;;;;;;;;3600407;39;20512;-80
2021/06/05 11:12:19;;;;;;;47.30;34.07;;;;;;;;;;3592664;39;20406;-79
2021/06/05 11:14:46;;;;;;;46.80;34.93;;;;;;;;;;3585037;39;20427;-79
2021/06/05 11:17:29;;;;;;;46.03;33.30;;;;;;;;;;3585243;39;20426;-80
2021/06/05 11:19:55;;;;;;;49.43;35.60;;;;;;;;;;3583598;39;20485;-80
2021/06/05 11:22:25;;;;;;;44.70;36.00;;;;;;;;;;3587993;39;20422;-79
2021/06/05 11:25:08;;;;;;;45.97;37.57;;;;;;;;;;3592104;39;20901;-80
2021/06/05 11:27:37;;;;;;;46.63;36.60;;;;;;;;;;3591474;39;20392;-79
2021/06/05 11:30:26;;;;;;;45.67;36.00;;;;;;;;;;3590672;39;20435;-80
2021/06/05 11:33:03;;;;;;;48.90;36.60;;;;;;;;;;3591211;39;21338;-80
2021/06/05 11:35:35;;;;;;;57.40;41.50;;;;;;;;;;3588883;39;20402;-80
2021/06/05 11:38:06;;;;;;;48.60;40.30;;;;;;;;;;3585601;39;20737;-80
2021/06/05 11:40:50;;;;;;;44.73;35.63;;;;;;;;;;3585079;39;20416;-80
2021/06/05 11:43:37;;;;;;;48.93;39.67;;;;;;;;;;3591736;39;20507;-82
2021/06/05 11:46:14;;;;;;;50.83;42.13;;;;;;;;;;3601821;39;20391;-80
2021/06/05 11:48:51;;;;;;;45.40;39.20;;;;;;;;;;3592694;39;20415;-81
2021/06/05 11:51:20;;;;;;;42.90;38.30;;;;;;;;;;3595487;39;20418;-80
2021/06/05 11:53:48;;;;;;;48.33;36.13;;;;;;;;;;3592615;39;20427;-80
2021/06/05 11:56:14;;;;;;;39.80;33.97;;;;;;;;;;3601833;39;20501;-80
2021/06/05 11:58:42;;;;;;;38.50;33.10;;;;;;;;;;3593465;39;20465;-79
2021/06/05 12:01:28;;;;;;;38.47;33.43;;;;;;;;;;3577575;39;20462;-80
2021/06/05 12:03:56;;;;;;;42.17;37.57;;;;;;;;;;3589202;39;20410;-80
2021/06/05 12:06:28;;;;;;;45.40;38.17;;;;;;;;;;3581843;39;21136;-80
2021/06/05 12:09:14;;;;;;;40.97;34.43;;;;;;;;;;3578966;39;20458;-80
2021/06/05 12:11:40;;;;;;;36.77;32.60;;;;;;;;;;3575332;39;21149;-79
2021/06/05 12:14:16;;;;;;;43.10;37.90;;;;;;;;;;3576930;39;20444;-78
2021/06/05 12:16:51;;;;;;;57.87;35.10;;;;;;;;;;3594218;39;20442;-80
2021/06/05 12:19:51;;;;;;;40.33;34.93;;;;;;;;;;3596703;39;20399;-80
2021/06/05 12:22:35;;;;;;;45.27;36.20;;;;;;;;;;3553871;40;20416;-79
2021/06/05 12:25:28;;;;;;;51.40;39.47;;;;;;;;;;3542192;40;20435;-79
2021/06/05 12:28:15;;;;;;;55.30;38.30;;;;;;;;;;3510712;40;20406;-80
2021/06/05 12:30:43;;;;;;;52.27;41.33;;;;;;;;;;3521848;40;20410;-80
2021/06/05 12:33:13;;;;;;;53.70;38.77;;;;;;;;;;3511612;40;20426;-81
2021/06/05 12:35:46;;;;;;;51.67;39.07;;;;;;;;;;3517150;40;20426;-80
2021/06/05 12:38:14;;;;;;;49.13;36.97;;;;;;;;;;3509033;40;20795;-80
2021/06/05 12:40:41;;;;;;;49.07;36.13;;;;;;;;;;3519088;40;20422;-80
2021/06/05 12:43:09;;;;;;;45.40;36.33;;;;;;;;;;3505207;40;20451;-81
2021/06/05 12:45:37;;;;;;;46.73;37.30;;;;;;;;;;3518701;40;20573;-80
2021/06/05 12:48:05;;;;;;;53.60;42.07;;;;;;;;;;3514676;40;20433;-81
2021/06/05 12:50:33;;;;;;;47.27;39.13;;;;;;;;;;3517689;40;20418;-81
2021/06/05 12:53:01;;;;;;;46.00;35.40;;;;;;;;;;3517754;40;20438;-81
2021/06/05 12:55:36;;;;;;;44.90;35.43;;;;;;;;;;3519961;40;20466;-81
2021/06/05 12:58:07;;;;;;;54.77;42.47;;;;;;;;;;3528461;40;20391;-78
2021/06/05 13:00:39;;;;;;;52.50;44.70;;;;;;;;;;3550453;40;21280;-79
2021/06/05 13:03:08;;;;;;;68.87;50.30;;;;;;;;;;3543035;40;20519;-80
2021/06/05 13:05:39;;;;;;;72.53;49.13;;;;;;;;;;3570552;39;20412;-81
2021/06/05 13:08:17;;;;;;;68.60;52.07;;;;;;;;;;3590557;39;20406;-80
2021/06/05 13:10:46;;;;;;;83.97;60.90;;;;;;;;;;3596840;39;20431;-80
2021/06/05 13:13:14;;;;;;;75.93;60.77;;;;;;;;;;3593371;39;20462;-80
2021/06/05 13:15:46;;;;;;;68.70;53.57;;;;;;;;;;3598415;39;20415;-81
2021/06/05 13:18:31;;;;;;;78.37;59.53;;;;;;;;;;3584580;39;20404;-79
2021/06/05 13:20:57;;;;;;;81.00;60.73;;;;;;;;;;3583099;39;20411;-80
2021/06/05 13:23:25;;;;;;;85.57;62.67;;;;;;;;;;3592458;39;20449;-80
2021/06/05 13:25:52;;;;;;;87.67;66.23;;;;;;;;;;3591285;39;20425;-79
2021/06/05 13:28:26;;;;;;;79.43;62.20;;;;;;;;;;3583751;39;20389;-79
2021/06/05 13:30:57;;;;;;;88.20;65.80;;;;;;;;;;3599346;39;20457;-79
2021/06/05 13:33:35;;;;;;;81.30;61.77;;;;;;;;;;3587651;39;20409;-81
2021/06/05 13:36:07;;;;;;;82.53;61.03;;;;;;;;;;3583930;39;20400;-80
2021/06/05 13:38:36;;;;;;;79.23;60.57;;;;;;;;;;3592892;39;20693;-81
2021/06/05 13:41:02;;;;;;;68.17;52.97;;;;;;;;;;3587156;39;20432;-79
2021/06/05 13:43:53;;;;;;;71.50;55.47;;;;;;;;;;3576842;39;20447;-80
2021/06/05 13:46:20;;;;;;;65.80;50.60;;;;;;;;;;3555682;40;20780;-80
2021/06/05 13:48:48;;;;;;;64.80;51.57;;;;;;;;;;3565875;40;20505;-80
2021/06/05 13:51:16;;;;;;;64.13;47.50;;;;;;;;;;3548828;40;20414;-79
2021/06/05 13:53:44;;;;;;;62.67;49.00;;;;;;;;;;3557455;40;20415;-81
2021/06/05 13:56:12;;;;;;;70.90;50.37;;;;;;;;;;3557246;40;20800;-80
2021/06/05 13:58:41;;;;;;;65.60;49.87;;;;;;;;;;3557610;40;20406;-80
2021/06/05 14:01:09;;;;;;;70.83;53.67;;;;;;;;;;3557494;40;20433;-80
2021/06/05 14:03:37;;;;;;;88.87;67.27;;;;;;;;;;3549824;40;20473;-79
2021/06/05 14:06:03;;;;;;;110.97;74.97;;;;;;;;;;3566192;40;20517;-79
2021/06/05 14:08:30;;;;;;;120.27;79.63;;;;;;;;;;3566429;40;20405;-80
2021/06/05 14:10:56;;;;;;;120.33;81.70;;;;;;;;;;3547694;40;20421;-79
2021/06/05 14:13:23;;;;;;;116.83;78.40;;;;;;;;;;3561746;40;20713;-79
2021/06/05 14:15:52;;;;;;;116.77;74.87;;;;;;;;;;3556381;40;20434;-79
2021/06/05 14:18:21;;;;;;;126.60;77.30;;;;;;;;;;3555993;40;20461;-79
2021/06/05 14:20:49;;;;;;;125.20;77.07;;;;;;;;;;3555088;40;20520;-80
2021/06/05 14:23:15;;;;;;;126.60;76.13;;;;;;;;;;3569330;39;20422;-79
2021/06/05 14:25:42;;;;;;;127.63;77.77;;;;;;;;;;3585669;39;20458;-80
2021/06/05 14:28:10;;;;;;;126.33;80.27;;;;;;;;;;3568110;39;20404;-80
2021/06/05 14:30:39;;;;;;;97.40;64.37;;;;;;;;;;3567237;39;20400;-80
2021/06/05 14:33:07;;;;;;;94.60;61.00;;;;;;;;;;3575357;39;20384;-79